Time;durP1;ratioP1;P1;durP2;ratioP2;P2;SDS_P1;SDS_P2;PMS_P1;PMS_P2;Temp;Humidity;BMP_temperature;BMP_pressure;BME280_temperature;BME280_humidity;BME280_pressure;Samples;Min_cycle;Max_cycle;Signal;HPM_P1;HPM_P2
2021/12/19 00:09:43;;;;;;;37.67;19.50;;;;;;;;;;5090654;28;20030;-66
2021/12/19 00:12:10;;;;;;;39.28;18.92;;;;;;;;;;5091438;28;20556;-66
2021/12/19 00:14:36;;;;;;;37.65;17.42;;;;;;;;;;5092621;28;20020;-67
2021/12/19 00:17:02;;;;;;;38.10;19.75;;;;;;;;;;5092795;28;20035;-66
2021/12/19 00:19:29;;;;;;;38.22;19.58;;;;;;;;;;5092867;28;20107;-67
2021/12/19 00:21:56;;;;;;;35.00;16.88;;;;;;;;;;5079839;28;20085;-67
2021/12/19 00:24:24;;;;;;;33.83;16.48;;;;;;;;;;5077309;28;20032;-69
2021/12/19 00:26:50;;;;;;;33.80;16.92;;;;;;;;;;5071141;28;20021;-69
2021/12/19 00:29:16;;;;;;;31.35;16.80;;;;;;;;;;5073469;28;20104;-68
2021/12/19 00:31:46;;;;;;;33.13;17.73;;;;;;;;;;5073388;28;20074;-68
2021/12/19 00:34:13;;;;;;;31.23;16.42;;;;;;;;;;5073357;28;20028;-69
2021/12/19 00:36:39;;;;;;;30.25;15.45;;;;;;;;;;5073379;28;20032;-69
2021/12/19 00:39:06;;;;;;;31.80;17.00;;;;;;;;;;5072009;28;20548;-68
2021/12/19 00:41:32;;;;;;;37.63;17.83;;;;;;;;;;5073490;28;20425;-68
2021/12/19 00:44:12;;;;;;;33.90;17.08;;;;;;;;;;5072497;28;20101;-68
2021/12/19 00:46:47;;;;;;;38.55;18.05;;;;;;;;;;5072969;28;20389;-70
2021/12/19 00:49:13;;;;;;;37.58;17.70;;;;;;;;;;5072923;28;20031;-69
2021/12/19 00:51:39;;;;;;;41.80;19.70;;;;;;;;;;5073211;28;20530;-69
2021/12/19 00:54:09;;;;;;;37.33;18.45;;;;;;;;;;5071754;28;20109;-69
2021/12/19 00:56:43;;;;;;;31.88;17.45;;;;;;;;;;5071804;28;20036;-69
2021/12/19 00:59:09;;;;;;;35.92;16.67;;;;;;;;;;5073117;28;20028;-68
2021/12/19 01:01:36;;;;;;;34.05;16.70;;;;;;;;;;5073008;28;20031;-68
2021/12/19 01:04:04;;;;;;;37.75;16.80;;;;;;;;;;5073037;28;20032;-68
2021/12/19 01:06:31;;;;;;;30.35;15.00;;;;;;;;;;5072855;28;20047;-68
2021/12/19 01:08:57;;;;;;;26.77;15.20;;;;;;;;;;5071783;28;20059;-68
2021/12/19 01:11:24;;;;;;;31.95;16.67;;;;;;;;;;5072902;28;20112;-68
2021/12/19 01:13:50;;;;;;;30.20;15.20;;;;;;;;;;5072929;28;20024;-67
2021/12/19 01:16:17;;;;;;;33.22;15.57;;;;;;;;;;5071520;28;20074;-69
2021/12/19 01:18:43;;;;;;;27.23;14.10;;;;;;;;;;5072937;28;20021;-69
2021/12/19 01:21:09;;;;;;;31.50;16.27;;;;;;;;;;5073126;28;20163;-68
2021/12/19 01:23:37;;;;;;;29.10;16.00;;;;;;;;;;5072816;28;20416;-68
2021/12/19 01:26:03;;;;;;;27.08;15.30;;;;;;;;;;5072827;28;20466;-67
2021/12/19 01:28:29;;;;;;;34.33;15.63;;;;;;;;;;5072755;28;20104;-67
2021/12/19 01:30:58;;;;;;;26.17;14.38;;;;;;;;;;5072750;28;20078;-67
2021/12/19 01:33:24;;;;;;;26.40;13.80;;;;;;;;;;5071465;28;20437;-67
2021/12/19 01:35:51;;;;;;;30.70;14.70;;;;;;;;;;5072651;28;20047;-67
2021/12/19 01:38:17;;;;;;;29.85;15.43;;;;;;;;;;5072248;28;20032;-68
2021/12/19 01:40:43;;;;;;;27.63;14.40;;;;;;;;;;5072694;28;20103;-67
2021/12/19 01:43:09;;;;;;;26.38;13.20;;;;;;;;;;5072435;28;20052;-66
2021/12/19 01:45:37;;;;;;;25.15;12.57;;;;;;;;;;5071306;28;20064;-67
2021/12/19 01:48:06;;;;;;;23.83;13.30;;;;;;;;;;5072494;28;20031;-66
2021/12/19 01:50:33;;;;;;;26.42;13.88;;;;;;;;;;5072542;28;20131;-67
2021/12/19 01:53:02;;;;;;;27.80;14.13;;;;;;;;;;5072279;28;20476;-66
2021/12/19 01:55:29;;;;;;;31.73;15.82;;;;;;;;;;5074847;28;20067;-66
2021/12/19 01:57:55;;;;;;;29.17;15.65;;;;;;;;;;5074967;28;20024;-66
2021/12/19 02:00:26;;;;;;;32.35;15.43;;;;;;;;;;5076537;28;20024;-66
2021/12/19 02:02:52;;;;;;;32.72;13.68;;;;;;;;;;5076199;28;20055;-65
2021/12/19 02:05:19;;;;;;;30.55;13.25;;;;;;;;;;5074757;28;20036;-65
2021/12/19 02:07:47;;;;;;;23.38;13.57;;;;;;;;;;5076109;28;20024;-66
2021/12/19 02:10:14;;;;;;;25.63;13.40;;;;;;;;;;5074806;28;20114;-66
2021/12/19 02:12:40;;;;;;;25.20;13.20;;;;;;;;;;5076035;28;20020;-66
2021/12/19 02:15:07;;;;;;;26.73;14.30;;;;;;;;;;5075660;28;20056;-66
2021/12/19 02:17:33;;;;;;;32.17;15.90;;;;;;;;;;5074558;28;20610;-66
2021/12/19 02:19:59;;;;;;;36.22;16.85;;;;;;;;;;5074618;28;20456;-66
2021/12/19 02:22:26;;;;;;;37.95;17.95;;;;;;;;;;5074504;28;20016;-66
2021/12/19 02:24:52;;;;;;;47.58;21.00;;;;;;;;;;5075678;28;20090;-66
2021/12/19 02:27:18;;;;;;;45.75;22.88;;;;;;;;;;5075978;28;20025;-67
2021/12/19 02:29:44;;;;;;;41.65;21.25;;;;;;;;;;5074382;28;20112;-66
2021/12/19 02:32:11;;;;;;;42.70;20.35;;;;;;;;;;5075883;28;20116;-66
2021/12/19 02:34:42;;;;;;;35.45;15.52;;;;;;;;;;5074356;28;20059;-66
2021/12/19 02:37:43;;;;;;;26.50;13.43;;;;;;;;;;5075666;28;20036;-66
2021/12/19 02:48:11;;;;;;;25.88;14.73;;;;;;;;;;5075113;28;20035;-67
2021/12/19 02:50:43;;;;;;;27.58;16.05;;;;;;;;;;5075222;28;20443;-66
2021/12/19 02:53:09;;;;;;;32.17;18.63;;;;;;;;;;5074018;28;20044;-67
2021/12/19 02:55:35;;;;;;;34.70;19.23;;;;;;;;;;5074974;28;20492;-67
2021/12/19 02:58:01;;;;;;;34.40;17.95;;;;;;;;;;5073838;28;20377;-66
2021/12/19 03:00:28;;;;;;;29.38;15.98;;;;;;;;;;5074921;28;20039;-66
2021/12/19 03:02:54;;;;;;;27.67;14.82;;;;;;;;;;5075067;28;20082;-66
2021/12/19 03:05:21;;;;;;;26.95;13.50;;;;;;;;;;5075209;28;20115;-66
2021/12/19 03:07:50;;;;;;;25.33;13.02;;;;;;;;;;5074288;28;20540;-69
2021/12/19 03:18:26;;;;;;;26.67;13.25;;;;;;;;;;5074598;28;20086;-67
2021/12/19 03:20:53;;;;;;;23.70;12.80;;;;;;;;;;5073189;28;20107;-67
2021/12/19 03:23:19;;;;;;;23.70;13.77;;;;;;;;;;5074693;28;20035;-67
2021/12/19 03:25:45;;;;;;;27.65;14.05;;;;;;;;;;5074517;28;20055;-67
2021/12/19 03:28:13;;;;;;;25.63;14.40;;;;;;;;;;5073268;28;20393;-67
2021/12/19 03:30:40;;;;;;;25.70;13.90;;;;;;;;;;5073266;28;20377;-67
2021/12/19 03:33:07;;;;;;;29.42;14.68;;;;;;;;;;5073167;28;20115;-67
2021/12/19 03:35:34;;;;;;;29.70;14.27;;;;;;;;;;5074458;28;20037;-67
2021/12/19 03:38:01;;;;;;;27.23;13.40;;;;;;;;;;5074382;28;20103;-67
2021/12/19 03:40:40;;;;;;;26.00;13.43;;;;;;;;;;5074378;28;20107;-67
2021/12/19 03:43:11;;;;;;;27.50;13.52;;;;;;;;;;5073053;28;20440;-67
2021/12/19 03:45:37;;;;;;;26.67;14.13;;;;;;;;;;5073926;28;20481;-67
2021/12/19 03:48:04;;;;;;;24.92;12.90;;;;;;;;;;5072968;28;20028;-67
2021/12/19 03:50:33;;;;;;;26.02;13.07;;;;;;;;;;5073780;28;20048;-67
2021/12/19 03:53:02;;;;;;;34.42;16.10;;;;;;;;;;5074130;28;20032;-67
2021/12/19 03:55:29;;;;;;;29.38;15.63;;;;;;;;;;5072725;28;20029;-67
2021/12/19 03:57:57;;;;;;;27.20;14.57;;;;;;;;;;5074277;28;20028;-67
2021/12/19 04:00:26;;;;;;;29.90;14.55;;;;;;;;;;5073986;28;20361;-67
2021/12/19 04:02:54;;;;;;;29.73;13.75;;;;;;;;;;5073918;28;20020;-67
2021/12/19 04:05:20;;;;;;;23.63;14.10;;;;;;;;;;5072444;28;20550;-66
2021/12/19 04:07:47;;;;;;;22.20;13.10;;;;;;;;;;5073779;28;20115;-66
2021/12/19 04:10:13;;;;;;;26.98;14.13;;;;;;;;;;5073821;28;20025;-66
2021/12/19 04:12:40;;;;;;;26.02;14.10;;;;;;;;;;5073703;28;20054;-66
2021/12/19 04:15:06;;;;;;;25.63;12.70;;;;;;;;;;5073707;28;20036;-67
2021/12/19 04:17:33;;;;;;;24.63;13.90;;;;;;;;;;5073163;28;20024;-67
2021/12/19 04:19:59;;;;;;;26.08;14.60;;;;;;;;;;5073240;28;20500;-67
2021/12/19 04:22:25;;;;;;;23.92;13.50;;;;;;;;;;5073575;28;20030;-68
2021/12/19 04:24:53;;;;;;;26.48;13.85;;;;;;;;;;5073411;28;20078;-68
2021/12/19 04:27:19;;;;;;;26.40;13.48;;;;;;;;;;5073513;28;20021;-68
2021/12/19 04:29:46;;;;;;;30.50;15.45;;;;;;;;;;5073130;28;20016;-68
2021/12/19 04:32:12;;;;;;;29.55;15.07;;;;;;;;;;5073407;28;20066;-68
2021/12/19 04:34:39;;;;;;;22.83;13.88;;;;;;;;;;5073389;28;20529;-68
2021/12/19 04:40:10;;;;;;;27.15;15.45;;;;;;;;;;5031964;28;20380;-67
2021/12/19 04:43:50;;;;;;;30.67;13.93;;;;;;;;;;5073327;28;20035;-66
2021/12/19 04:54:02;;;;;;;30.92;17.65;;;;;;;;;;5073177;28;20029;-65
2021/12/19 05:15:28;;;;;;;27.73;14.95;;;;;;;;;;5072968;28;20048;-65
2021/12/19 05:17:58;;;;;;;23.25;13.07;;;;;;;;;;5072942;28;20074;-66
2021/12/19 05:20:27;;;;;;;30.25;14.43;;;;;;;;;;5071598;28;20143;-66
2021/12/19 05:22:59;;;;;;;31.00;14.38;;;;;;;;;;5072828;28;20479;-67
2021/12/19 05:25:26;;;;;;;27.55;13.70;;;;;;;;;;5072809;28;20127;-66
2021/12/19 05:27:53;;;;;;;26.55;14.07;;;;;;;;;;5071469;28;20388;-66
2021/12/19 05:30:20;;;;;;;30.95;17.40;;;;;;;;;;5074925;28;20032;-66
2021/12/19 05:32:47;;;;;;;47.40;24.35;;;;;;;;;;5075482;28;20032;-66
2021/12/19 05:35:16;;;;;;;44.95;24.55;;;;;;;;;;5076760;28;20040;-66
2021/12/19 05:45:57;;;;;;;26.40;13.82;;;;;;;;;;5076300;28;20594;-68
2021/12/19 05:48:23;;;;;;;26.15;14.95;;;;;;;;;;5076190;28;20020;-67
2021/12/19 05:50:50;;;;;;;25.27;14.25;;;;;;;;;;5076113;28;20094;-67
2021/12/19 05:53:16;;;;;;;23.55;14.10;;;;;;;;;;5075051;28;20024;-67
2021/12/19 05:55:42;;;;;;;29.77;17.05;;;;;;;;;;5075032;28;20032;-67
2021/12/19 05:58:09;;;;;;;31.65;17.42;;;;;;;;;;5076300;28;20029;-67
2021/12/19 06:00:35;;;;;;;37.03;18.52;;;;;;;;;;5076229;28;20476;-68
2021/12/19 06:03:02;;;;;;;32.47;17.63;;;;;;;;;;5076190;28;20032;-68
2021/12/19 06:05:28;;;;;;;36.40;18.17;;;;;;;;;;5074786;28;20036;-67
2021/12/19 06:07:55;;;;;;;36.45;17.80;;;;;;;;;;5076091;28;20445;-67
2021/12/19 06:10:22;;;;;;;34.60;18.23;;;;;;;;;;5075991;28;20056;-66
2021/12/19 06:12:49;;;;;;;34.03;19.25;;;;;;;;;;5076107;28;20056;-66
2021/12/19 06:15:15;;;;;;;43.50;20.05;;;;;;;;;;5074629;28;20032;-66
2021/12/19 06:17:44;;;;;;;35.25;17.88;;;;;;;;;;5075909;28;20109;-67
2021/12/19 06:20:11;;;;;;;33.42;17.20;;;;;;;;;;5075880;28;20368;-67
2021/12/19 06:22:37;;;;;;;33.42;17.33;;;;;;;;;;5075895;28;20086;-66
2021/12/19 06:25:04;;;;;;;31.13;16.98;;;;;;;;;;5075972;28;20024;-68
2021/12/19 06:27:30;;;;;;;33.67;16.08;;;;;;;;;;5075751;28;20024;-68
2021/12/19 06:29:57;;;;;;;26.45;14.57;;;;;;;;;;5074423;28;20056;-68
2021/12/19 06:32:23;;;;;;;28.73;15.57;;;;;;;;;;5075703;28;20031;-69
2021/12/19 06:34:49;;;;;;;28.95;14.40;;;;;;;;;;5075895;28;20056;-68
2021/12/19 06:37:15;;;;;;;25.23;14.43;;;;;;;;;;5074241;28;20074;-68
2021/12/19 06:39:41;;;;;;;24.85;14.43;;;;;;;;;;5075568;28;20067;-67
2021/12/19 06:42:09;;;;;;;27.70;15.82;;;;;;;;;;5074447;28;20082;-67
2021/12/19 06:44:36;;;;;;;32.40;18.17;;;;;;;;;;5075461;28;20025;-68
2021/12/19 06:47:04;;;;;;;27.58;16.92;;;;;;;;;;5075366;28;20051;-66
2021/12/19 06:49:30;;;;;;;28.23;16.08;;;;;;;;;;5075174;28;20119;-67
2021/12/19 06:51:56;;;;;;;29.13;16.02;;;;;;;;;;5073747;28;20038;-67
2021/12/19 06:54:23;;;;;;;34.95;19.00;;;;;;;;;;5073923;28;20127;-67
2021/12/19 06:56:49;;;;;;;33.00;19.55;;;;;;;;;;5075189;28;20029;-67
2021/12/19 06:59:15;;;;;;;38.95;20.40;;;;;;;;;;5073841;28;20035;-67
2021/12/19 07:01:41;;;;;;;39.85;21.20;;;;;;;;;;5074854;28;20393;-68
2021/12/19 07:04:08;;;;;;;41.67;21.88;;;;;;;;;;5075070;28;20481;-67
2021/12/19 07:06:35;;;;;;;44.00;21.58;;;;;;;;;;5074962;28;20466;-67
2021/12/19 07:09:01;;;;;;;50.85;21.27;;;;;;;;;;5075024;28;20572;-68
2021/12/19 07:11:27;;;;;;;47.78;21.45;;;;;;;;;;5083895;28;20453;-68
2021/12/19 07:13:53;;;;;;;49.25;24.13;;;;;;;;;;5093785;28;20368;-66
2021/12/19 07:16:19;;;;;;;50.13;24.63;;;;;;;;;;5094690;28;20115;-67
2021/12/19 07:18:47;;;;;;;38.47;20.15;;;;;;;;;;5094927;28;20116;-67
2021/12/19 07:21:14;;;;;;;39.28;20.55;;;;;;;;;;5094809;28;20020;-67
2021/12/19 07:23:40;;;;;;;35.90;18.33;;;;;;;;;;5092631;28;20040;-66
2021/12/19 07:26:07;;;;;;;36.92;19.88;;;;;;;;;;5094696;28;20028;-67
2021/12/19 07:28:33;;;;;;;39.47;19.27;;;;;;;;;;5093374;28;20111;-67
2021/12/19 07:30:59;;;;;;;35.47;19.92;;;;;;;;;;5094716;28;20020;-66
2021/12/19 07:33:26;;;;;;;40.15;22.00;;;;;;;;;;5094971;28;20037;-66
2021/12/19 07:35:53;;;;;;;32.97;19.02;;;;;;;;;;5094308;28;20036;-67
2021/12/19 07:38:28;;;;;;;42.15;19.55;;;;;;;;;;5094851;28;20471;-68
2021/12/19 07:40:57;;;;;;;41.88;19.80;;;;;;;;;;5094582;28;20025;-67
2021/12/19 07:43:23;;;;;;;44.20;20.42;;;;;;;;;;5093133;28;20122;-66
2021/12/19 07:45:49;;;;;;;36.30;18.65;;;;;;;;;;5094308;28;20032;-65
2021/12/19 07:48:15;;;;;;;43.13;21.25;;;;;;;;;;5094355;28;20027;-66
2021/12/19 07:50:42;;;;;;;38.75;18.58;;;;;;;;;;5091600;28;20478;-67
2021/12/19 07:53:08;;;;;;;38.95;20.90;;;;;;;;;;5092740;28;20036;-66
2021/12/19 07:55:35;;;;;;;40.45;19.08;;;;;;;;;;5093847;28;20028;-66
2021/12/19 07:58:01;;;;;;;37.75;19.42;;;;;;;;;;5094163;28;20028;-66
2021/12/19 08:00:28;;;;;;;40.65;20.20;;;;;;;;;;5094055;28;20074;-66
2021/12/19 08:02:54;;;;;;;34.40;18.85;;;;;;;;;;5093838;28;20489;-65
2021/12/19 08:05:21;;;;;;;38.97;20.48;;;;;;;;;;5093870;28;20032;-65
2021/12/19 08:07:54;;;;;;;38.70;19.52;;;;;;;;;;5094002;28;20027;-64
2021/12/19 08:12:46;;;;;;;37.65;18.17;;;;;;;;;;5093966;28;20115;-66
2021/12/19 08:15:15;;;;;;;28.48;15.55;;;;;;;;;;5093770;28;20052;-65
2021/12/19 08:17:41;;;;;;;31.60;16.70;;;;;;;;;;5093850;28;20020;-65
2021/12/19 08:20:11;;;;;;;27.23;17.55;;;;;;;;;;5094154;28;20038;-65
2021/12/19 08:22:38;;;;;;;23.98;15.27;;;;;;;;;;5093891;28;20020;-64
2021/12/19 08:25:05;;;;;;;30.92;17.08;;;;;;;;;;5092369;28;20101;-65
2021/12/19 08:27:33;;;;;;;35.22;19.45;;;;;;;;;;5093666;28;20067;-65
2021/12/19 08:29:59;;;;;;;32.75;17.90;;;;;;;;;;5091059;28;20043;-66
2021/12/19 08:32:26;;;;;;;38.95;21.77;;;;;;;;;;5092131;28;20024;-65
2021/12/19 08:34:52;;;;;;;33.67;16.48;;;;;;;;;;5091560;28;20463;-65
2021/12/19 08:37:19;;;;;;;27.05;15.65;;;;;;;;;;5091219;28;20103;-65
2021/12/19 08:39:45;;;;;;;30.65;16.48;;;;;;;;;;5093497;28;20024;-70
2021/12/19 08:42:12;;;;;;;29.83;16.63;;;;;;;;;;5093151;28;20034;-72
2021/12/19 08:44:39;;;;;;;27.35;15.77;;;;;;;;;;5092034;28;20030;-66
2021/12/19 08:47:06;;;;;;;31.90;16.95;;;;;;;;;;5093307;28;20040;-66
2021/12/19 08:49:34;;;;;;;25.67;15.57;;;;;;;;;;5091606;28;20040;-65
2021/12/19 08:52:00;;;;;;;34.67;18.77;;;;;;;;;;5091914;28;20451;-69
2021/12/19 08:54:26;;;;;;;37.67;17.98;;;;;;;;;;5093270;28;20492;-66
2021/12/19 08:56:53;;;;;;;29.63;17.35;;;;;;;;;;5093204;28;20020;-69
2021/12/19 08:59:19;;;;;;;34.67;18.88;;;;;;;;;;5093179;28;20483;-65
2021/12/19 09:01:47;;;;;;;23.52;14.50;;;;;;;;;;5091516;28;20028;-67
2021/12/19 09:04:13;;;;;;;27.00;15.88;;;;;;;;;;5091267;28;20441;-68
2021/12/19 09:06:39;;;;;;;24.42;15.07;;;;;;;;;;5091426;28;20078;-67
2021/12/19 09:09:06;;;;;;;27.67;16.02;;;;;;;;;;5093052;28;20060;-67
2021/12/19 09:11:33;;;;;;;29.17;13.75;;;;;;;;;;5092954;28;20031;-64
2021/12/19 09:13:59;;;;;;;29.25;15.82;;;;;;;;;;5091759;28;20024;-65
2021/12/19 09:16:26;;;;;;;24.58;13.63;;;;;;;;;;5093025;28;20047;-65
2021/12/19 09:18:52;;;;;;;21.13;11.95;;;;;;;;;;5093226;28;20114;-66
2021/12/19 09:21:19;;;;;;;22.60;14.82;;;;;;;;;;5091655;28;20036;-65
2021/12/19 09:23:45;;;;;;;24.70;14.38;;;;;;;;;;5092674;28;20051;-64
2021/12/19 09:26:12;;;;;;;21.80;14.02;;;;;;;;;;5092879;28;20118;-69
2021/12/19 09:28:39;;;;;;;26.75;15.38;;;;;;;;;;5092928;28;20468;-65
2021/12/19 09:31:05;;;;;;;23.73;13.95;;;;;;;;;;5092583;28;20052;-71
2021/12/19 09:33:31;;;;;;;23.88;13.93;;;;;;;;;;5092415;28;20028;-65
2021/12/19 09:35:59;;;;;;;32.78;15.23;;;;;;;;;;5092835;28;20479;-66
2021/12/19 09:38:25;;;;;;;31.58;15.73;;;;;;;;;;5091528;28;20109;-68
2021/12/19 09:40:59;;;;;;;29.33;15.10;;;;;;;;;;5091514;28;20024;-66
2021/12/19 09:43:41;;;;;;;29.13;17.25;;;;;;;;;;5091502;28;20039;-68
2021/12/19 09:46:09;;;;;;;26.77;15.90;;;;;;;;;;5092753;28;20572;-66
2021/12/19 09:48:36;;;;;;;29.58;17.48;;;;;;;;;;5092736;28;20047;-66
2021/12/19 09:51:02;;;;;;;29.60;16.98;;;;;;;;;;5092308;28;20052;-67
2021/12/19 09:53:28;;;;;;;25.67;15.27;;;;;;;;;;5091311;28;20028;-67
2021/12/19 09:55:54;;;;;;;34.65;18.13;;;;;;;;;;5092642;28;20067;-68
2021/12/19 09:58:20;;;;;;;30.30;17.00;;;;;;;;;;5092271;28;20036;-68
2021/12/19 10:00:47;;;;;;;30.92;17.73;;;;;;;;;;5091203;28;20031;-66
2021/12/19 10:03:13;;;;;;;30.45;16.90;;;;;;;;;;5091297;28;20092;-65
2021/12/19 10:05:39;;;;;;;37.35;19.10;;;;;;;;;;5092414;28;20089;-66
2021/12/19 10:08:05;;;;;;;30.83;17.65;;;;;;;;;;5092804;28;20081;-65
2021/12/19 10:10:44;;;;;;;28.55;17.25;;;;;;;;;;5092804;28;20059;-67
2021/12/19 10:13:10;;;;;;;26.45;16.42;;;;;;;;;;5092425;28;20024;-67
2021/12/19 10:15:38;;;;;;;21.55;13.20;;;;;;;;;;5093298;28;20032;-66
2021/12/19 10:18:06;;;;;;;20.05;11.13;;;;;;;;;;5096170;28;20027;-65
2021/12/19 10:20:43;;;;;;;20.67;11.93;;;;;;;;;;5094305;28;20149;-66
2021/12/19 10:23:11;;;;;;;19.42;11.02;;;;;;;;;;5096035;28;20099;-69
2021/12/19 10:25:37;;;;;;;25.50;13.70;;;;;;;;;;5094532;28;20126;-71
2021/12/19 10:28:06;;;;;;;19.02;11.38;;;;;;;;;;5094595;28;20115;-70
2021/12/19 10:30:37;;;;;;;21.35;12.35;;;;;;;;;;5094342;28;20024;-70
2021/12/19 10:33:13;;;;;;;21.80;12.47;;;;;;;;;;5094481;28;20485;-71
2021/12/19 10:35:41;;;;;;;24.58;13.68;;;;;;;;;;5094169;28;20274;-71
2021/12/19 10:38:14;;;;;;;20.20;12.40;;;;;;;;;;5094440;28;20028;-70
2021/12/19 10:40:40;;;;;;;18.67;9.82;;;;;;;;;;5094294;28;20055;-70
2021/12/19 10:43:07;;;;;;;18.33;10.10;;;;;;;;;;5095695;28;20469;-71
2021/12/19 10:45:51;;;;;;;18.35;10.68;;;;;;;;;;5094133;28;20086;-71
2021/12/19 10:48:22;;;;;;;16.42;10.15;;;;;;;;;;5095281;28;20043;-66
2021/12/19 10:50:53;;;;;;;18.00;10.90;;;;;;;;;;5095088;28;20054;-70
2021/12/19 10:53:23;;;;;;;22.07;10.10;;;;;;;;;;5093291;28;20111;-68
2021/12/19 10:55:50;;;;;;;22.00;12.65;;;;;;;;;;5095059;28;20793;-67
2021/12/19 10:58:23;;;;;;;38.42;20.92;;;;;;;;;;5095402;28;20027;-69
2021/12/19 11:01:08;;;;;;;24.23;13.40;;;;;;;;;;5093989;28;20035;-69
2021/12/19 11:03:36;;;;;;;34.30;20.17;;;;;;;;;;5095238;28;20028;-72
2021/12/19 11:06:13;;;;;;;28.65;14.77;;;;;;;;;;5095234;28;20040;-69
2021/12/19 11:08:39;;;;;;;26.65;14.52;;;;;;;;;;5095224;28;20156;-70
2021/12/19 11:11:06;;;;;;;20.60;11.75;;;;;;;;;;5095022;28;20020;-68
2021/12/19 11:13:32;;;;;;;16.95;9.88;;;;;;;;;;5093531;28;20038;-69
2021/12/19 11:15:58;;;;;;;15.98;9.65;;;;;;;;;;5094522;28;20055;-66
2021/12/19 11:18:24;;;;;;;16.85;9.88;;;;;;;;;;5094017;28;20085;-68
2021/12/19 11:20:51;;;;;;;17.40;10.00;;;;;;;;;;5093261;28;20119;-66
2021/12/19 11:23:17;;;;;;;14.30;9.75;;;;;;;;;;5095225;28;20024;-67
2021/12/19 11:25:43;;;;;;;19.83;10.60;;;;;;;;;;5094654;28;20035;-69
2021/12/19 11:28:10;;;;;;;17.20;10.27;;;;;;;;;;5094171;28;20024;-67
2021/12/19 11:30:36;;;;;;;21.45;10.45;;;;;;;;;;5094723;28;20067;-70
2021/12/19 11:33:14;;;;;;;17.00;9.93;;;;;;;;;;5093365;28;20047;-66
2021/12/19 11:35:45;;;;;;;15.82;9.30;;;;;;;;;;5094592;28;20024;-66
2021/12/19 11:38:13;;;;;;;13.82;9.10;;;;;;;;;;5094571;28;20103;-67
2021/12/19 11:40:39;;;;;;;16.50;9.75;;;;;;;;;;5094571;28;20016;-66
2021/12/19 11:43:10;;;;;;;23.70;12.10;;;;;;;;;;5094239;28;20032;-67
2021/12/19 11:45:47;;;;;;;14.30;8.00;;;;;;;;;;5093196;28;20036;-66
2021/12/19 11:48:21;;;;;;;12.30;7.60;;;;;;;;;;5093228;28;20024;-64
2021/12/19 11:50:54;;;;;;;16.45;9.40;;;;;;;;;;5094252;28;20369;-66
2021/12/19 11:53:28;;;;;;;22.15;10.07;;;;;;;;;;5094364;28;20059;-66
2021/12/19 11:55:56;;;;;;;16.25;9.23;;;;;;;;;;5094309;28;20039;-66
2021/12/19 11:58:24;;;;;;;15.70;8.68;;;;;;;;;;5094321;28;20032;-66
2021/12/19 12:00:53;;;;;;;12.35;7.90;;;;;;;;;;5092871;28;20024;-66
2021/12/19 12:03:21;;;;;;;22.50;12.32;;;;;;;;;;5091885;28;20031;-67
2021/12/19 12:05:59;;;;;;;16.55;9.63;;;;;;;;;;5093074;28;20047;-66
2021/12/19 12:08:27;;;;;;;21.20;9.55;;;;;;;;;;5093617;28;20112;-66
2021/12/19 12:10:57;;;;;;;15.38;8.38;;;;;;;;;;5093908;28;20031;-66
2021/12/19 12:13:25;;;;;;;23.75;13.82;;;;;;;;;;5093907;28;20103;-65
2021/12/19 12:15:54;;;;;;;20.65;10.55;;;;;;;;;;5093921;28;20028;-66
2021/12/19 12:18:30;;;;;;;16.30;10.27;;;;;;;;;;5093880;28;20024;-67
2021/12/19 12:20:57;;;;;;;17.98;9.82;;;;;;;;;;5093829;28;20529;-67
2021/12/19 12:23:27;;;;;;;12.65;8.40;;;;;;;;;;5093831;28;20103;-66
2021/12/19 12:25:54;;;;;;;14.68;8.63;;;;;;;;;;5093780;28;20063;-66
2021/12/19 12:28:21;;;;;;;22.77;10.07;;;;;;;;;;5093740;28;20020;-66
2021/12/19 12:30:50;;;;;;;21.92;11.98;;;;;;;;;;5092401;28;20028;-66
2021/12/19 12:33:18;;;;;;;18.55;8.95;;;;;;;;;;5093682;28;20043;-66
2021/12/19 12:35:49;;;;;;;21.38;10.55;;;;;;;;;;5093626;28;20028;-65
2021/12/19 12:38:15;;;;;;;16.38;9.80;;;;;;;;;;5093535;28;20465;-66
2021/12/19 12:41:08;;;;;;;17.52;10.05;;;;;;;;;;5092797;28;20056;-66
2021/12/19 12:43:43;;;;;;;23.02;10.90;;;;;;;;;;5093519;28;20024;-66
2021/12/19 12:46:09;;;;;;;22.77;11.43;;;;;;;;;;5093349;28;20032;-66
2021/12/19 12:48:36;;;;;;;21.90;13.40;;;;;;;;;;5093405;28;20024;-66
2021/12/19 12:51:04;;;;;;;20.08;10.70;;;;;;;;;;5093307;28;20048;-67
2021/12/19 12:53:40;;;;;;;18.52;10.00;;;;;;;;;;5093357;28;20055;-66
2021/12/19 12:56:10;;;;;;;19.65;10.80;;;;;;;;;;5093386;28;20024;-66
2021/12/19 12:58:38;;;;;;;15.82;9.60;;;;;;;;;;5093295;28;20020;-66
2021/12/19 13:01:22;;;;;;;14.48;9.23;;;;;;;;;;5093262;28;20042;-66
2021/12/19 13:03:54;;;;;;;18.20;10.15;;;;;;;;;;5093212;28;20028;-65
2021/12/19 13:06:39;;;;;;;17.38;10.15;;;;;;;;;;5091901;28;20392;-66
2021/12/19 13:09:10;;;;;;;19.27;10.50;;;;;;;;;;5091828;28;20515;-66
2021/12/19 13:11:37;;;;;;;17.10;10.70;;;;;;;;;;5093172;28;20074;-65
2021/12/19 13:14:12;;;;;;;17.73;10.63;;;;;;;;;;5093139;28;20020;-66
2021/12/19 13:16:42;;;;;;;20.05;10.98;;;;;;;;;;5093075;28;20020;-66
2021/12/19 13:19:08;;;;;;;21.23;11.18;;;;;;;;;;5092899;28;20067;-67
2021/12/19 13:21:56;;;;;;;25.27;12.82;;;;;;;;;;5092925;28;20518;-65
2021/12/19 13:24:24;;;;;;;20.58;11.48;;;;;;;;;;5092735;28;20032;-66
2021/12/19 13:27:03;;;;;;;21.33;11.60;;;;;;;;;;5092886;28;20158;-65
2021/12/19 13:29:30;;;;;;;22.88;11.70;;;;;;;;;;5093027;28;20016;-66
2021/12/19 13:32:15;;;;;;;24.40;13.05;;;;;;;;;;5092944;28;20016;-66
2021/12/19 13:34:41;;;;;;;24.30;12.73;;;;;;;;;;5092949;28;20035;-65
2021/12/19 13:37:08;;;;;;;26.48;12.68;;;;;;;;;;5092950;28;20028;-65
2021/12/19 13:39:34;;;;;;;26.60;14.63;;;;;;;;;;5093190;28;20028;-66
2021/12/19 13:42:14;;;;;;;33.00;20.08;;;;;;;;;;5092825;28;20017;-66
2021/12/19 13:44:41;;;;;;;28.40;15.95;;;;;;;;;;5092912;28;20099;-66
2021/12/19 13:47:14;;;;;;;31.02;14.48;;;;;;;;;;5092806;28;20028;-66
2021/12/19 13:49:41;;;;;;;25.15;13.57;;;;;;;;;;5092765;28;20093;-65
2021/12/19 13:52:08;;;;;;;25.73;13.68;;;;;;;;;;5096269;28;20473;-65
2021/12/19 13:54:38;;;;;;;25.27;16.42;;;;;;;;;;5096735;28;20031;-65
2021/12/19 13:57:15;;;;;;;23.38;13.00;;;;;;;;;;5096659;28;20028;-65
2021/12/19 13:59:42;;;;;;;33.70;21.02;;;;;;;;;;5095298;28;20021;-66
2021/12/19 14:02:11;;;;;;;32.20;18.33;;;;;;;;;;5096193;28;20379;-65
2021/12/19 14:04:38;;;;;;;37.58;22.50;;;;;;;;;;5096477;28;20109;-66
2021/12/19 14:07:15;;;;;;;63.28;40.65;;;;;;;;;;5096014;28;20394;-66
2021/12/19 14:09:42;;;;;;;62.72;37.05;;;;;;;;;;5096434;28;20433;-65
2021/12/19 14:12:15;;;;;;;38.97;22.75;;;;;;;;;;5096253;28;20033;-66
2021/12/19 14:14:41;;;;;;;37.83;18.67;;;;;;;;;;5096256;28;20099;-65
2021/12/19 14:17:09;;;;;;;30.92;17.10;;;;;;;;;;5096450;28;20028;-67
2021/12/19 14:19:37;;;;;;;31.48;18.67;;;;;;;;;;5094712;28;20078;-66
2021/12/19 14:22:06;;;;;;;25.17;15.88;;;;;;;;;;5096097;28;20021;-66
2021/12/19 14:24:37;;;;;;;26.38;14.75;;;;;;;;;;5096088;28;20082;-65
2021/12/19 14:27:09;;;;;;;27.15;15.48;;;;;;;;;;5095918;28;20050;-66
2021/12/19 14:29:35;;;;;;;;;;;;;;;;;;5095147;28;20028;-66
2021/12/19 14:32:06;;;;;;;24.58;12.95;;;;;;;;;;5095984;28;19965;-65
2021/12/19 14:34:35;;;;;;;17.75;12.13;;;;;;;;;;5094746;28;20020;-66
2021/12/19 14:37:19;;;;;;;19.08;11.15;;;;;;;;;;5095871;28;20031;-66
2021/12/19 14:39:59;;;;;;;19.95;12.05;;;;;;;;;;5096138;28;20016;-66
2021/12/19 14:42:34;;;;;;;19.58;11.80;;;;;;;;;;5095734;28;20043;-66
2021/12/19 14:45:02;;;;;;;27.13;11.27;;;;;;;;;;5095831;28;20106;-65
2021/12/19 14:47:35;;;;;;;20.33;12.07;;;;;;;;;;5095974;28;20034;-66
2021/12/19 14:50:19;;;;;;;23.88;13.73;;;;;;;;;;5095503;28;20051;-66
2021/12/19 14:52:59;;;;;;;19.48;12.07;;;;;;;;;;5095636;28;20024;-66
2021/12/19 14:55:26;;;;;;;24.95;13.18;;;;;;;;;;5095241;28;20388;-65
2021/12/19 14:57:52;;;;;;;25.00;12.45;;;;;;;;;;5095519;28;20024;-66
2021/12/19 15:00:18;;;;;;;20.77;13.23;;;;;;;;;;5095483;28;20107;-65
2021/12/19 15:02:44;;;;;;;22.67;12.88;;;;;;;;;;5093176;28;20086;-65
2021/12/19 15:05:11;;;;;;;27.75;14.93;;;;;;;;;;5095349;28;20032;-65
2021/12/19 15:07:43;;;;;;;27.48;17.05;;;;;;;;;;5095570;28;20035;-66
2021/12/19 15:10:09;;;;;;;29.45;16.95;;;;;;;;;;5095319;28;20031;-65
2021/12/19 15:12:36;;;;;;;30.15;17.40;;;;;;;;;;5093928;28;20594;-65
2021/12/19 15:15:02;;;;;;;29.35;17.60;;;;;;;;;;5094942;28;20453;-65
2021/12/19 15:17:28;;;;;;;25.42;15.80;;;;;;;;;;5095172;28;20177;-65
2021/12/19 15:19:54;;;;;;;29.63;14.50;;;;;;;;;;5095335;28;20099;-65
2021/12/19 15:22:20;;;;;;;24.33;14.13;;;;;;;;;;5094780;28;20123;-65
2021/12/19 15:24:46;;;;;;;29.45;14.38;;;;;;;;;;5094950;28;20103;-66
2021/12/19 15:27:13;;;;;;;23.42;13.70;;;;;;;;;;5093601;28;20044;-66
2021/12/19 15:29:39;;;;;;;25.27;14.10;;;;;;;;;;5094875;28;20111;-66
2021/12/19 15:32:07;;;;;;;27.40;14.13;;;;;;;;;;5094578;28;20468;-65